createdAt,value
2023-01-10T00:00:59.227Z,75.38
2023-01-10T00:04:03.236Z,75.11
2023-01-10T00:07:06.202Z,75.00
2023-01-10T00:10:09.817Z,74.31
2023-01-10T00:13:23.699Z,73.24
2023-01-10T00:16:26.529Z,72.48
2023-01-10T00:19:31.192Z,72.53
2023-01-10T00:22:33.736Z,73.81
2023-01-10T00:25:36.935Z,73.81
2023-01-10T00:28:39.679Z,73.66
2023-01-10T00:31:42.216Z,73.40
2023-01-10T00:34:46.728Z,73.11
2023-01-10T00:37:49.293Z,73.16
2023-01-10T00:40:51.911Z,73.52
2023-01-10T00:43:59.630Z,72.81
2023-01-10T00:47:02.327Z,73.19
2023-01-10T00:50:08.532Z,74.26
2023-01-10T00:53:11.917Z,74.10
2023-01-10T00:56:14.538Z,74.29
2023-01-10T00:59:17.173Z,73.87
2023-01-10T01:02:19.907Z,74.60
2023-01-10T01:05:24.386Z,74.34
2023-01-10T01:08:27.396Z,73.97
2023-01-10T01:11:29.912Z,74.80
2023-01-10T01:14:32.613Z,74.15
2023-01-10T01:17:35.462Z,74.53
2023-01-10T01:20:39.977Z,74.63
2023-01-10T01:23:42.589Z,75.67
2023-01-10T01:26:45.722Z,76.01
2023-01-10T01:29:48.452Z,75.02
2023-01-10T01:32:51.283Z,75.73
2023-01-10T01:35:55.143Z,75.26
2023-01-10T01:38:57.621Z,74.86
2023-01-10T01:42:00.495Z,73.84
2023-01-10T01:45:48.992Z,74.25
2023-01-10T01:48:51.816Z,73.61
2023-01-10T01:52:00.174Z,73.26
2023-01-10T01:55:04.494Z,73.26
2023-01-10T01:58:16.961Z,72.21
2023-01-10T02:01:20.349Z,72.80
2023-01-10T02:04:25.452Z,72.65
2023-01-10T02:07:30.743Z,72.45
2023-01-10T02:10:38.810Z,72.46
2023-01-10T02:13:42.718Z,73.42
2023-01-10T02:16:45.684Z,73.34
2023-01-10T02:19:52.685Z,73.72
2023-01-10T02:23:26.257Z,75.31
2023-01-10T02:26:47.791Z,76.43
2023-01-10T02:30:25.595Z,77.86
2023-01-10T02:33:31.540Z,78.27
2023-01-10T02:36:40.366Z,79.80
2023-01-10T02:39:50.417Z,81.73
2023-01-10T02:42:57.490Z,82.20
2023-01-10T02:46:03.429Z,82.50
2023-01-10T02:49:07.783Z,82.14
2023-01-10T02:52:10.708Z,82.77
2023-01-10T02:55:13.334Z,82.61
2023-01-10T02:58:24.707Z,81.78
2023-01-10T03:01:32.808Z,82.06
2023-01-10T03:04:45.607Z,81.54
2023-01-10T03:07:54.426Z,82.00
2023-01-10T03:10:59.920Z,81.29
2023-01-10T03:14:03.574Z,81.64
2023-01-10T03:17:08.892Z,81.73
2023-01-10T03:20:13.796Z,81.46
2023-01-10T03:23:17.599Z,81.05
2023-01-10T03:26:26.607Z,80.69
2023-01-10T03:29:32.655Z,80.54
2023-01-10T03:32:35.491Z,80.83
2023-01-10T03:35:45.382Z,80.96
2023-01-10T03:38:52.819Z,80.27
2023-01-10T03:42:02.574Z,80.23
2023-01-10T03:45:07.356Z,79.42
2023-01-10T03:48:12.423Z,79.58
2023-01-10T03:51:17.055Z,79.12
2023-01-10T03:54:19.726Z,78.78
2023-01-10T03:57:24.164Z,78.45
2023-01-10T04:00:27.049Z,78.61
2023-01-10T04:03:29.762Z,79.29
2023-01-10T04:06:33.864Z,78.88
2023-01-10T04:09:36.436Z,78.59
2023-01-10T04:12:39.274Z,78.84
2023-01-10T04:15:42.053Z,79.13
2023-01-10T04:18:44.842Z,78.57
2023-01-10T04:21:48.854Z,79.41
2023-01-10T04:24:52.166Z,79.38
2023-01-10T04:27:55.019Z,79.33
2023-01-10T04:30:57.590Z,78.89
2023-01-10T04:34:00.170Z,78.92
2023-01-10T04:37:04.180Z,79.11
2023-01-10T04:40:08.202Z,78.31
2023-01-10T04:43:10.876Z,78.83
2023-01-10T04:46:13.466Z,79.08
2023-01-10T04:49:16.923Z,79.61
2023-01-10T04:52:21.228Z,79.77
2023-01-10T04:55:23.845Z,78.59
2023-01-10T04:58:27.158Z,77.39
2023-01-10T05:01:29.939Z,76.78
2023-01-10T05:04:32.856Z,76.91
2023-01-10T05:07:37.580Z,76.85
2023-01-10T05:10:40.168Z,76.61
2023-01-10T05:13:43.386Z,76.06
2023-01-10T05:16:46.022Z,75.26
2023-01-10T05:19:48.723Z,74.91
2023-01-10T05:22:52.738Z,73.48
2023-01-10T05:25:55.468Z,72.71
2023-01-10T05:28:58.016Z,72.18
2023-01-10T05:32:00.920Z,71.34
2023-01-10T05:35:03.541Z,71.14
2023-01-10T05:38:07.486Z,70.20
2023-01-10T05:41:10.151Z,70.36
2023-01-10T05:44:14.737Z,69.99
2023-01-10T05:47:17.442Z,69.84
2023-01-10T05:50:20.025Z,70.12
2023-01-10T05:53:24.352Z,69.54
2023-01-10T05:56:27.262Z,69.67
2023-01-10T05:59:29.944Z,69.65
2023-01-10T06:02:32.879Z,69.92
2023-01-10T06:05:35.586Z,68.67
2023-01-10T06:08:40.740Z,67.70
2023-01-10T06:11:43.393Z,67.53
2023-01-10T06:14:46.082Z,67.95
2023-01-10T06:17:49.757Z,67.55
2023-01-10T06:20:52.954Z,67.20
2023-01-10T06:23:57.764Z,66.95
2023-01-10T06:27:00.294Z,67.28
2023-01-10T06:30:02.833Z,66.85
2023-01-10T06:33:07.411Z,66.49
2023-01-10T06:36:10.675Z,66.09
2023-01-10T06:39:14.761Z,66.01
2023-01-10T06:42:17.839Z,66.29
2023-01-10T06:45:20.573Z,66.19
2023-01-10T06:48:23.503Z,66.67
2023-01-10T06:51:26.324Z,67.12
2023-01-10T06:54:30.369Z,66.63
2023-01-10T06:57:35.347Z,65.35
2023-01-10T07:00:38.293Z,66.04
2023-01-10T07:03:41.394Z,66.46
2023-01-10T07:06:44.028Z,66.23
2023-01-10T07:09:48.304Z,65.29
2023-01-10T07:12:51.230Z,65.96
2023-01-10T07:15:54.092Z,65.47
2023-01-10T07:18:56.770Z,65.63
2023-01-10T07:21:59.379Z,65.39
2023-01-10T07:25:03.396Z,65.71
2023-01-10T07:28:06.114Z,66.14
2023-01-10T07:31:08.720Z,65.45
2023-01-10T07:34:11.658Z,64.78
2023-01-10T07:37:14.285Z,64.85
2023-01-10T07:40:18.977Z,64.04
2023-01-10T07:43:21.628Z,64.16
2023-01-10T07:46:24.168Z,64.49
2023-01-10T07:49:27.244Z,64.12
2023-01-10T07:52:30.085Z,63.20
2023-01-10T07:55:36.336Z,63.14
2023-01-10T07:58:38.947Z,62.89
2023-01-10T08:01:41.752Z,62.99
2023-01-10T08:04:50.992Z,63.00
2023-01-10T08:07:55.215Z,62.86
2023-01-10T08:11:00.348Z,62.69
2023-01-10T08:14:03.038Z,62.07
2023-01-10T08:17:05.623Z,62.13
2023-01-10T08:20:09.769Z,62.12
2023-01-10T08:23:12.457Z,61.66
2023-01-10T08:26:16.363Z,61.64
2023-01-10T08:29:19.240Z,61.72
2023-01-10T08:32:22.431Z,61.44
2023-01-10T08:35:25.020Z,60.72
2023-01-10T08:38:27.590Z,60.93
2023-01-10T08:41:31.495Z,61.04
2023-01-10T08:44:34.105Z,59.64
2023-01-10T08:47:36.684Z,59.20
2023-01-10T08:50:39.382Z,59.35
2023-01-10T08:53:41.966Z,59.54
2023-01-10T08:56:47.372Z,59.30
2023-01-10T08:59:50.070Z,58.32
2023-01-10T09:02:52.787Z,58.92
2023-01-10T09:05:55.609Z,58.35
2023-01-10T09:08:58.673Z,58.29
2023-01-10T09:12:22.595Z,58.76
2023-01-10T09:15:27.079Z,59.03
2023-01-10T09:18:29.629Z,58.86
2023-01-10T09:21:32.392Z,59.06
2023-01-10T09:24:39.640Z,59.22
2023-01-10T09:27:43.616Z,60.51
2023-01-10T09:30:46.377Z,61.07
2023-01-10T09:33:49.814Z,61.65
2023-01-10T09:36:52.404Z,61.90
2023-01-10T09:39:55.042Z,62.56
2023-01-10T09:43:07.084Z,62.46
2023-01-10T09:46:12.755Z,62.01
2023-01-10T09:49:21.724Z,62.54
2023-01-10T09:52:28.140Z,62.36
2023-01-10T09:55:33.094Z,62.12
2023-01-10T09:58:38.677Z,61.63
2023-01-10T10:01:41.355Z,62.06
2023-01-10T10:04:47.078Z,63.61
2023-01-10T10:07:54.540Z,65.69
2023-01-10T10:11:04.407Z,66.17
2023-01-10T10:14:16.376Z,66.55
2023-01-10T10:17:38.785Z,65.39
2023-01-10T10:20:52.802Z,65.03
2023-01-10T10:24:09.025Z,63.34
2023-01-10T10:27:19.203Z,64.33
2023-01-10T10:30:35.867Z,64.30
2023-01-10T10:33:54.241Z,63.81
2023-01-10T10:36:59.140Z,62.05
2023-01-10T10:40:03.982Z,61.67
2023-01-10T10:43:15.648Z,63.44
2023-01-10T10:46:20.218Z,63.16
2023-01-10T10:49:29.432Z,65.36
2023-01-10T10:52:35.693Z,65.82
2023-01-10T10:55:39.011Z,65.60
2023-01-10T10:58:44.406Z,63.98
2023-01-10T11:01:49.843Z,62.52
2023-01-10T11:04:54.565Z,61.76
2023-01-10T11:08:02.832Z,62.25
2023-01-10T11:11:08.749Z,61.67
2023-01-10T11:14:11.571Z,62.53
2023-01-10T11:17:24.130Z,63.02
2023-01-10T11:20:26.975Z,64.40
2023-01-10T11:23:38.599Z,63.88
2023-01-10T11:26:41.715Z,63.43
2023-01-10T11:29:46.622Z,62.29
2023-01-10T11:32:53.809Z,60.84
2023-01-10T11:36:00.801Z,58.80
2023-01-10T11:39:06.122Z,58.07
2023-01-10T11:42:29.881Z,58.02
2023-01-10T11:45:33.535Z,57.79
2023-01-10T11:49:04.846Z,58.08
2023-01-10T11:52:16.760Z,58.57
2023-01-10T11:55:21.045Z,58.06
2023-01-10T11:58:23.749Z,57.99
2023-01-10T12:01:29.112Z,57.03
2023-01-10T12:04:36.045Z,56.57
2023-01-10T12:07:57.184Z,55.83
2023-01-10T12:11:03.010Z,55.72
2023-01-10T12:14:19.830Z,55.23
2023-01-10T12:17:25.211Z,53.08
2023-01-10T12:20:31.318Z,54.30
2023-01-10T12:23:40.557Z,55.65
2023-01-10T12:26:44.029Z,56.95
2023-01-10T12:29:53.433Z,57.10
2023-01-10T12:32:58.058Z,56.82
2023-01-10T12:36:10.843Z,56.61
2023-01-10T12:39:17.380Z,55.75
2023-01-10T12:42:46.088Z,55.11
2023-01-10T12:45:52.574Z,54.29
2023-01-10T12:48:58.509Z,52.75
2023-01-10T12:52:06.584Z,52.02
2023-01-10T12:55:14.570Z,52.48
2023-01-10T12:58:22.189Z,52.92
2023-01-10T13:01:29.992Z,51.22
2023-01-10T13:04:38.228Z,50.42
2023-01-10T13:07:43.343Z,50.83
2023-01-10T13:10:48.067Z,50.55
2023-01-10T13:13:54.828Z,50.18
2023-01-10T13:17:04.788Z,49.97
2023-01-10T13:20:29.536Z,50.69
2023-01-10T13:23:35.511Z,50.44
2023-01-10T13:26:51.026Z,50.46
2023-01-10T13:29:54.655Z,50.87
2023-01-10T13:32:59.770Z,50.08
2023-01-10T13:36:10.605Z,49.97
2023-01-10T13:39:24.968Z,48.59
2023-01-10T13:42:49.876Z,43.63
2023-01-10T13:46:37.452Z,44.36
2023-01-10T13:49:43.944Z,45.26
2023-01-10T13:52:46.452Z,42.62
2023-01-10T13:55:57.091Z,43.12
2023-01-10T13:59:17.280Z,42.14
2023-01-10T14:02:31.629Z,43.59
2023-01-10T14:05:34.312Z,44.39
2023-01-10T14:08:37.100Z,39.42
2023-01-10T14:11:51.786Z,36.19
2023-01-10T14:14:57.268Z,36.69
2023-01-10T14:18:02.471Z,35.24
2023-01-10T14:21:07.064Z,33.66
2023-01-10T14:24:25.519Z,34.36
2023-01-10T14:27:35.996Z,40.99
2023-01-10T14:30:41.243Z,44.31
2023-01-10T14:33:44.909Z,46.12
2023-01-10T14:36:50.372Z,47.70
2023-01-10T14:39:56.138Z,47.74
2023-01-10T14:43:03.880Z,48.79
2023-01-10T14:46:11.730Z,49.12
2023-01-10T14:49:23.595Z,49.41
2023-01-10T14:52:27.703Z,50.34
2023-01-10T14:55:31.620Z,50.53
2023-01-10T14:58:35.991Z,50.81
2023-01-10T15:01:39.299Z,51.69
2023-01-10T15:04:51.589Z,51.71
2023-01-10T15:07:54.904Z,52.14
2023-01-10T15:11:01.315Z,53.02
2023-01-10T15:14:10.977Z,53.07
2023-01-10T15:17:20.172Z,54.03
2023-01-10T15:20:23.756Z,53.81
2023-01-10T15:23:27.494Z,54.17
2023-01-10T15:26:33.406Z,54.40
2023-01-10T15:29:44.574Z,53.92
2023-01-10T15:32:50.626Z,54.50
2023-01-10T15:35:53.380Z,54.49
2023-01-10T15:38:57.065Z,54.99
2023-01-10T15:42:02.473Z,54.68
2023-01-10T15:45:29.814Z,55.74
2023-01-10T15:48:34.170Z,56.13
2023-01-10T15:51:39.389Z,56.31
2023-01-10T15:54:44.523Z,56.93
2023-01-10T15:57:47.588Z,57.81
2023-01-10T16:00:53.783Z,56.97
2023-01-10T16:04:01.349Z,56.88
2023-01-10T16:07:09.382Z,57.06
2023-01-10T16:10:19.108Z,57.33
2023-01-10T16:13:33.194Z,58.27
2023-01-10T16:16:37.551Z,58.24
2023-01-10T16:19:40.585Z,58.46
2023-01-10T16:22:44.386Z,59.03
2023-01-10T16:25:49.232Z,59.11
2023-01-10T16:28:51.914Z,59.36
2023-01-10T16:31:56.536Z,59.48
2023-01-10T16:35:01.429Z,59.53
2023-01-10T16:38:04.594Z,59.37
2023-01-10T16:41:21.486Z,59.15
2023-01-10T16:44:24.366Z,58.81
2023-01-10T16:47:28.400Z,60.91
2023-01-10T16:50:31.337Z,57.74
2023-01-10T16:53:34.410Z,57.61
2023-01-10T16:56:37.735Z,57.72
2023-01-10T16:59:40.727Z,58.21
2023-01-10T17:02:45.117Z,58.15
2023-01-10T17:05:48.160Z,57.87
2023-01-10T17:08:51.121Z,57.63
2023-01-10T17:11:57.648Z,57.69
2023-01-10T17:15:00.403Z,57.55
2023-01-10T17:18:04.814Z,57.02
2023-01-10T17:21:12.511Z,56.99
2023-01-10T17:24:15.136Z,56.85
2023-01-10T17:27:17.971Z,57.43
2023-01-10T17:30:20.857Z,56.88
2023-01-10T17:33:25.403Z,57.03
2023-01-10T17:36:30.012Z,56.78
2023-01-10T17:39:32.957Z,57.02
2023-01-10T17:42:36.031Z,56.16
2023-01-10T17:45:40.151Z,55.55
2023-01-10T17:48:44.323Z,56.33
2023-01-10T17:51:47.386Z,55.52
2023-01-10T17:54:49.942Z,55.68
2023-01-10T17:57:52.528Z,55.74
2023-01-10T18:00:55.771Z,55.81
2023-01-10T18:04:00.089Z,55.44
2023-01-10T18:07:04.612Z,55.64
2023-01-10T18:10:08.917Z,55.43
2023-01-10T18:13:12.453Z,55.82
2023-01-10T18:16:15.189Z,55.62
2023-01-10T18:19:19.646Z,55.60
2023-01-10T18:22:39.745Z,55.35
2023-01-10T18:25:42.961Z,54.80
2023-01-10T18:28:45.956Z,55.07
2023-01-10T18:31:49.217Z,54.67
2023-01-10T18:34:53.284Z,55.24
2023-01-10T18:37:56.046Z,54.83
2023-01-10T18:40:58.601Z,54.42
2023-01-10T18:44:01.718Z,54.48
2023-01-10T18:47:04.556Z,54.56
2023-01-10T18:50:09.473Z,55.53
2023-01-10T18:53:12.230Z,55.20
2023-01-10T18:56:17.370Z,54.76
2023-01-10T18:59:20.343Z,54.80
2023-01-10T19:02:23.397Z,55.09
2023-01-10T19:05:27.749Z,55.03
2023-01-10T19:08:30.531Z,54.72
2023-01-10T19:11:33.520Z,55.06
2023-01-10T19:14:36.186Z,54.36
2023-01-10T19:17:38.894Z,54.87
2023-01-10T19:20:43.013Z,54.55
2023-01-10T19:23:46.985Z,54.30
2023-01-10T19:26:50.268Z,54.11
2023-01-10T19:29:53.110Z,54.10
2023-01-10T19:32:57.513Z,54.19
2023-01-10T19:36:03.558Z,54.47
2023-01-10T19:39:07.565Z,54.73
2023-01-10T19:42:10.536Z,54.52
2023-01-10T19:45:13.784Z,54.52
2023-01-10T19:48:17.114Z,54.71
2023-01-10T19:51:21.889Z,55.07
2023-01-10T19:54:25.482Z,54.82
2023-01-10T19:57:28.251Z,54.35
2023-01-10T20:00:31.197Z,53.87
2023-01-10T20:03:34.036Z,53.32
2023-01-10T20:06:40.494Z,54.09
2023-01-10T20:09:43.912Z,54.30
2023-01-10T20:12:46.902Z,53.78
2023-01-10T20:15:49.828Z,53.22
2023-01-10T20:18:53.160Z,53.33
2023-01-10T20:21:57.673Z,52.56
2023-01-10T20:25:00.870Z,52.65
2023-01-10T20:28:03.577Z,52.54
2023-01-10T20:31:08.140Z,52.72
2023-01-10T20:34:11.176Z,53.14
2023-01-10T20:37:15.272Z,53.22
2023-01-10T20:40:18.237Z,53.11
2023-01-10T20:43:21.108Z,53.21
2023-01-10T20:46:26.259Z,53.36
2023-01-10T20:49:29.280Z,53.39
2023-01-10T20:52:33.310Z,52.95
2023-01-10T20:55:36.288Z,52.77
2023-01-10T20:58:40.340Z,52.59
2023-01-10T21:01:42.941Z,52.11
2023-01-10T21:04:45.656Z,51.98
2023-01-10T21:07:50.079Z,52.42
2023-01-10T21:10:53.721Z,52.38
2023-01-10T21:13:56.770Z,52.71
2023-01-10T21:16:59.522Z,52.53
2023-01-10T21:20:02.544Z,52.01
2023-01-10T21:23:06.652Z,51.49
2023-01-10T21:26:12.200Z,51.59
2023-01-10T21:29:15.248Z,53.15
2023-01-10T21:32:17.955Z,53.16
2023-01-10T21:35:20.560Z,54.29
2023-01-10T21:38:25.260Z,54.70
2023-01-10T21:41:45.367Z,56.34
2023-01-10T21:44:48.064Z,55.82
2023-01-10T21:47:51.699Z,56.75
2023-01-10T21:50:54.646Z,56.75
2023-01-10T21:53:59.217Z,58.05
2023-01-10T22:00:30.693Z,59.39
2023-01-10T22:03:33.448Z,60.52
2023-01-10T22:06:36.322Z,59.15
2023-01-10T22:09:40.784Z,58.93
2023-01-10T22:12:43.429Z,59.50
2023-01-10T22:15:46.190Z,58.70
2023-01-10T22:18:49.025Z,58.31
2023-01-10T22:21:51.954Z,58.17
2023-01-10T22:24:56.121Z,58.97
2023-01-10T22:27:58.877Z,59.07
2023-01-10T22:31:02.387Z,59.70
2023-01-10T22:34:05.259Z,59.12
2023-01-10T22:37:08.051Z,59.02
2023-01-10T22:40:13.256Z,58.76
2023-01-10T22:43:15.889Z,59.20
2023-01-10T22:46:18.453Z,59.46
2023-01-10T22:49:21.837Z,59.53
2023-01-10T22:52:24.597Z,59.77
2023-01-10T22:55:28.795Z,59.83
2023-01-10T22:58:31.774Z,59.83
2023-01-10T23:01:35.109Z,59.73
2023-01-10T23:04:37.799Z,59.70
2023-01-10T23:07:40.584Z,60.52
2023-01-10T23:10:46.797Z,60.11
2023-01-10T23:13:50.382Z,60.13
2023-01-10T23:16:53.103Z,60.36
2023-01-10T23:19:55.633Z,60.17
2023-01-10T23:22:58.456Z,60.50
2023-01-10T23:26:05.339Z,59.80
2023-01-10T23:29:08.095Z,60.00
2023-01-10T23:32:10.735Z,60.95
2023-01-10T23:35:13.312Z,59.97
2023-01-10T23:38:16.080Z,59.88
2023-01-10T23:41:21.147Z,60.88
2023-01-10T23:44:24.804Z,60.58
2023-01-10T23:47:27.562Z,60.44
2023-01-10T23:50:30.303Z,59.45
2023-01-10T23:53:32.929Z,59.48
2023-01-10T23:56:36.994Z,58.97
2023-01-10T23:59:39.905Z,58.70
